createdAt,value
2023-01-27T00:00:52.605Z,1017.63
2023-01-27T00:01:52.606Z,1017.57
2023-01-27T00:02:52.613Z,1017.62
2023-01-27T00:03:52.628Z,1017.64
2023-01-27T00:04:52.575Z,1017.60
2023-01-27T00:05:52.553Z,1017.64
2023-01-27T00:06:52.539Z,1017.65
2023-01-27T00:07:52.508Z,1017.65
2023-01-27T00:08:52.492Z,1017.68
2023-01-27T00:09:52.476Z,1017.69
2023-01-27T00:10:52.468Z,1017.71
2023-01-27T00:11:52.449Z,1017.65
2023-01-27T00:12:52.436Z,1017.71
2023-01-27T00:13:52.431Z,1017.69
2023-01-27T00:14:52.419Z,1017.72
2023-01-27T00:15:52.431Z,1017.70
2023-01-27T00:16:52.382Z,1017.70
2023-01-27T00:17:52.364Z,1017.70
2023-01-27T00:18:52.370Z,1017.66
2023-01-27T00:19:52.331Z,1017.65
2023-01-27T00:20:52.325Z,1017.64
2023-01-27T00:21:52.308Z,1017.70
2023-01-27T00:22:52.292Z,1017.67
2023-01-27T00:23:52.320Z,1017.69
2023-01-27T00:24:52.262Z,1017.64
2023-01-27T00:25:52.249Z,1017.66
2023-01-27T00:26:52.243Z,1017.66
2023-01-27T00:27:52.227Z,1017.63
2023-01-27T00:28:52.341Z,1017.61
2023-01-27T00:29:52.308Z,1017.64
2023-01-27T00:30:52.236Z,1017.62
2023-01-27T00:31:52.186Z,1017.62
2023-01-27T00:32:53.145Z,1017.64
2023-01-27T00:33:52.137Z,1017.64
2023-01-27T00:34:52.123Z,1017.63
2023-01-27T00:35:52.107Z,1017.64
2023-01-27T00:36:52.104Z,1017.65
2023-01-27T00:37:52.078Z,1017.66
2023-01-27T00:38:52.069Z,1017.67
2023-01-27T00:39:52.062Z,1017.66
2023-01-27T00:40:52.039Z,1017.67
2023-01-27T00:41:52.022Z,1017.69
2023-01-27T00:42:52.009Z,1017.69
2023-01-27T00:43:52.001Z,1017.65
2023-01-27T00:44:51.984Z,1017.73
2023-01-27T00:45:51.967Z,1017.71
2023-01-27T00:46:52.031Z,1017.72
2023-01-27T00:47:51.935Z,1017.74
2023-01-27T00:48:51.930Z,1017.72
2023-01-27T00:49:51.911Z,1017.75
2023-01-27T00:50:51.892Z,1017.72
2023-01-27T00:51:51.881Z,1017.76
2023-01-27T00:52:51.870Z,1017.76
2023-01-27T00:53:51.849Z,1017.79
2023-01-27T00:54:51.835Z,1017.79
2023-01-27T00:55:51.822Z,1017.78
2023-01-27T00:56:51.814Z,1017.76
2023-01-27T00:57:51.801Z,1017.74
2023-01-27T00:58:51.780Z,1017.75
2023-01-27T00:59:51.799Z,1017.75
2023-01-27T01:00:51.753Z,1017.72
2023-01-27T01:01:51.780Z,1017.76
2023-01-27T01:02:51.749Z,1017.75
2023-01-27T01:03:51.711Z,1017.76
2023-01-27T01:04:51.817Z,1017.77
2023-01-27T01:05:51.679Z,1017.76
2023-01-27T01:06:51.662Z,1017.80
2023-01-27T01:07:51.650Z,1017.79
2023-01-27T01:08:51.634Z,1017.82
2023-01-27T01:09:51.632Z,1017.84
2023-01-27T01:10:51.609Z,1017.85
2023-01-27T01:11:51.593Z,1017.85
2023-01-27T01:12:51.589Z,1017.85
2023-01-27T01:13:51.566Z,1017.82
2023-01-27T01:14:51.551Z,1017.85
2023-01-27T01:15:51.558Z,1017.85
2023-01-27T01:16:51.521Z,1017.87
2023-01-27T01:17:51.516Z,1017.87
2023-01-27T01:18:51.493Z,1017.91
2023-01-27T01:19:51.482Z,1017.90
2023-01-27T01:20:51.469Z,1017.88
2023-01-27T01:21:51.458Z,1017.92
2023-01-27T01:22:51.441Z,1017.89
2023-01-27T01:23:51.497Z,1017.90
2023-01-27T01:24:51.408Z,1017.93
2023-01-27T01:25:51.392Z,1017.93
2023-01-27T01:26:51.378Z,1017.88
2023-01-27T01:27:51.367Z,1017.95
2023-01-27T01:28:51.351Z,1017.94
2023-01-27T01:29:51.335Z,1017.88
2023-01-27T01:30:51.379Z,1017.92
2023-01-27T01:31:51.315Z,1017.95
2023-01-27T01:32:51.295Z,1017.92
2023-01-27T01:33:51.285Z,1017.91
2023-01-27T01:34:51.267Z,1017.93
2023-01-27T01:35:51.252Z,1017.94
2023-01-27T01:36:51.277Z,1017.94
2023-01-27T01:37:51.226Z,1017.94
2023-01-27T01:38:51.215Z,1018.00
2023-01-27T01:39:51.193Z,1017.99
2023-01-27T01:40:51.180Z,1017.98
2023-01-27T01:41:51.174Z,1017.99
2023-01-27T01:42:51.161Z,1018.03
2023-01-27T01:43:51.137Z,1018.04
2023-01-27T01:44:51.122Z,1017.97
2023-01-27T01:45:51.142Z,1018.01
2023-01-27T01:46:51.177Z,1018.05
2023-01-27T01:47:51.081Z,1018.01
2023-01-27T01:48:51.073Z,1018.04
2023-01-27T01:49:51.051Z,1018.03
2023-01-27T01:50:51.042Z,1018.05
2023-01-27T01:51:51.026Z,1018.04
2023-01-27T01:52:51.013Z,1018.07
2023-01-27T01:53:50.994Z,1018.07
2023-01-27T01:54:50.981Z,1018.08
2023-01-27T01:55:50.972Z,1018.04
2023-01-27T01:56:50.951Z,1018.07
2023-01-27T01:57:50.944Z,1018.09
2023-01-27T01:58:50.930Z,1018.07
2023-01-27T01:59:50.906Z,1018.05
2023-01-27T02:00:51.011Z,1018.09
2023-01-27T02:01:50.895Z,1018.06
2023-01-27T02:02:50.883Z,1018.02
2023-01-27T02:03:50.863Z,1018.03
2023-01-27T02:04:50.839Z,1018.03
2023-01-27T02:05:50.833Z,1018.03
2023-01-27T02:06:50.823Z,1017.98
2023-01-27T02:07:50.796Z,1018.03
2023-01-27T02:08:50.792Z,1018.02
2023-01-27T02:09:50.767Z,1018.00
2023-01-27T02:10:50.754Z,1018.01
2023-01-27T02:11:50.739Z,1017.99
2023-01-27T02:12:50.733Z,1018.01
2023-01-27T02:13:50.706Z,1017.98
2023-01-27T02:14:50.701Z,1017.95
2023-01-27T02:15:50.683Z,1017.99
2023-01-27T02:16:50.700Z,1017.99
2023-01-27T02:17:50.657Z,1018.01
2023-01-27T02:18:50.663Z,1017.99
2023-01-27T02:19:50.629Z,1017.99
2023-01-27T02:20:50.635Z,1018.01
2023-01-27T02:21:50.595Z,1017.96
2023-01-27T02:22:50.581Z,1017.99
2023-01-27T02:23:50.684Z,1017.99
2023-01-27T02:24:50.568Z,1018.01
2023-01-27T02:25:50.540Z,1018.02
2023-01-27T02:26:50.527Z,1018.01
2023-01-27T02:27:50.523Z,1017.95
2023-01-27T02:28:50.497Z,1018.02
2023-01-27T02:29:50.480Z,1017.97
2023-01-27T02:30:50.548Z,1017.98
2023-01-27T02:31:50.533Z,1017.97
2023-01-27T02:32:50.440Z,1017.97
2023-01-27T02:33:50.439Z,1017.94
2023-01-27T02:34:50.413Z,1017.95
2023-01-27T02:35:50.397Z,1017.99
2023-01-27T02:36:50.391Z,1017.97
2023-01-27T02:37:50.369Z,1017.97
2023-01-27T02:38:50.353Z,1018.00
2023-01-27T02:39:50.343Z,1018.00
2023-01-27T02:40:50.329Z,1018.03
2023-01-27T02:41:50.309Z,1018.04
2023-01-27T02:42:50.302Z,1018.05
2023-01-27T02:43:50.286Z,1018.08
2023-01-27T02:44:50.271Z,1018.10
2023-01-27T02:45:50.290Z,1018.07
2023-01-27T02:46:50.241Z,1018.13
2023-01-27T02:47:50.226Z,1018.09
2023-01-27T02:48:50.213Z,1018.11
2023-01-27T02:49:50.209Z,1018.12
2023-01-27T02:50:50.187Z,1018.11
2023-01-27T02:51:50.168Z,1018.13
2023-01-27T02:52:50.156Z,1018.16
2023-01-27T02:53:50.145Z,1018.17
2023-01-27T02:54:50.133Z,1018.20
2023-01-27T02:55:50.114Z,1018.21
2023-01-27T02:56:50.103Z,1018.20
2023-01-27T02:57:50.094Z,1018.24
2023-01-27T02:58:50.076Z,1018.21
2023-01-27T02:59:50.058Z,1018.23
2023-01-27T03:00:50.048Z,1018.23
2023-01-27T03:01:50.067Z,1018.20
2023-01-27T03:02:50.017Z,1018.18
2023-01-27T03:03:50.004Z,1018.21
2023-01-27T03:04:50.040Z,1018.22
2023-01-27T03:05:49.978Z,1018.19
2023-01-27T03:06:49.971Z,1018.21
2023-01-27T03:07:49.951Z,1018.22
2023-01-27T03:08:49.948Z,1018.21
2023-01-27T03:09:49.926Z,1018.21
2023-01-27T03:10:49.907Z,1018.22
2023-01-27T03:11:49.890Z,1018.20
2023-01-27T03:12:49.872Z,1018.22
2023-01-27T03:13:49.861Z,1018.20
2023-01-27T03:14:49.854Z,1018.20
2023-01-27T03:15:49.885Z,1018.18
2023-01-27T03:16:49.818Z,1018.16
2023-01-27T03:17:49.972Z,1018.14
2023-01-27T03:18:49.789Z,1018.12
2023-01-27T03:19:49.775Z,1018.13
2023-01-27T03:20:49.776Z,1018.10
2023-01-27T03:21:49.752Z,1018.17
2023-01-27T03:22:49.735Z,1018.12
2023-01-27T03:23:49.794Z,1018.12
2023-01-27T03:24:49.704Z,1018.15
2023-01-27T03:25:49.699Z,1018.17
2023-01-27T03:26:49.685Z,1018.15
2023-01-27T03:27:49.664Z,1018.13
2023-01-27T03:28:49.650Z,1018.17
2023-01-27T03:29:49.639Z,1018.16
2023-01-27T03:30:49.722Z,1018.18
2023-01-27T03:31:49.723Z,1018.16
2023-01-27T03:32:49.592Z,1018.16
2023-01-27T03:33:49.580Z,1018.19
2023-01-27T03:34:49.574Z,1018.19
2023-01-27T03:35:49.560Z,1018.21
2023-01-27T03:36:49.544Z,1018.21
2023-01-27T03:37:49.526Z,1018.22
2023-01-27T03:38:49.511Z,1018.23
2023-01-27T03:39:49.499Z,1018.20
2023-01-27T03:40:49.481Z,1018.18
2023-01-27T03:41:49.475Z,1018.24
2023-01-27T03:42:49.468Z,1018.25
2023-01-27T03:43:49.445Z,1018.27
2023-01-27T03:44:49.436Z,1018.28
2023-01-27T03:45:49.435Z,1018.31
2023-01-27T03:46:49.409Z,1018.27
2023-01-27T03:47:49.412Z,1018.25
2023-01-27T03:48:49.368Z,1018.27
2023-01-27T03:49:49.353Z,1018.27
2023-01-27T03:50:49.343Z,1018.25
2023-01-27T03:51:49.327Z,1018.27
2023-01-27T03:52:49.317Z,1018.24
2023-01-27T03:53:49.300Z,1018.23
2023-01-27T03:54:49.285Z,1018.25
2023-01-27T03:55:49.272Z,1018.24
2023-01-27T03:56:49.255Z,1018.27
2023-01-27T03:57:49.243Z,1018.26
2023-01-27T03:58:49.231Z,1018.23
2023-01-27T03:59:49.215Z,1018.27
2023-01-27T04:00:49.201Z,1018.24
2023-01-27T04:01:49.232Z,1018.22
2023-01-27T04:02:49.233Z,1018.22
2023-01-27T04:03:49.156Z,1018.24
2023-01-27T04:04:49.148Z,1018.20
2023-01-27T04:05:49.130Z,1018.19
2023-01-27T04:06:49.120Z,1018.22
2023-01-27T04:07:49.108Z,1018.17
2023-01-27T04:08:49.086Z,1018.17
2023-01-27T04:09:49.081Z,1018.20
2023-01-27T04:10:49.067Z,1018.20
2023-01-27T04:11:49.050Z,1018.22
2023-01-27T04:12:49.040Z,1018.22
2023-01-27T04:13:49.017Z,1018.22
2023-01-27T04:14:49.002Z,1018.17
2023-01-27T04:15:49.021Z,1018.20
2023-01-27T04:16:48.976Z,1018.19
2023-01-27T04:17:48.963Z,1018.15
2023-01-27T04:18:49.825Z,1018.18
2023-01-27T04:19:48.932Z,1018.18
2023-01-27T04:20:48.919Z,1018.19
2023-01-27T04:21:48.911Z,1018.20
2023-01-27T04:22:48.893Z,1018.18
2023-01-27T04:23:48.987Z,1018.18
2023-01-27T04:24:48.865Z,1018.20
2023-01-27T04:25:48.844Z,1018.20
2023-01-27T04:26:48.833Z,1018.23
2023-01-27T04:27:48.828Z,1018.21
2023-01-27T04:28:48.806Z,1018.19
2023-01-27T04:29:48.794Z,1018.22
2023-01-27T04:30:48.800Z,1018.18
2023-01-27T04:31:48.792Z,1018.19
2023-01-27T04:32:48.748Z,1018.19
2023-01-27T04:33:48.730Z,1018.19
2023-01-27T04:34:48.731Z,1018.22
2023-01-27T04:35:48.705Z,1018.22
2023-01-27T04:36:48.696Z,1018.19
2023-01-27T04:37:48.677Z,1018.19
2023-01-27T04:38:48.676Z,1018.19
2023-01-27T04:39:48.648Z,1018.16
2023-01-27T04:40:48.635Z,1018.19
2023-01-27T04:41:48.622Z,1018.22
2023-01-27T04:42:48.607Z,1018.23
2023-01-27T04:43:48.594Z,1018.25
2023-01-27T04:44:48.583Z,1018.28
2023-01-27T04:45:48.611Z,1018.25
2023-01-27T04:46:48.593Z,1018.30
2023-01-27T04:47:48.540Z,1018.27
2023-01-27T04:48:48.553Z,1018.29
2023-01-27T04:49:48.502Z,1018.24
2023-01-27T04:50:48.511Z,1018.25
2023-01-27T04:51:48.494Z,1018.26
2023-01-27T04:52:48.470Z,1018.27
2023-01-27T04:53:48.452Z,1018.27
2023-01-27T04:54:48.447Z,1018.27
2023-01-27T04:55:48.423Z,1018.30
2023-01-27T04:56:48.409Z,1018.27
2023-01-27T04:57:48.394Z,1018.30
2023-01-27T04:58:48.397Z,1018.30
2023-01-27T04:59:48.369Z,1018.31
2023-01-27T05:00:48.353Z,1018.33
2023-01-27T05:01:48.373Z,1018.31
2023-01-27T05:02:48.373Z,1018.32
2023-01-27T05:03:48.313Z,1018.32
2023-01-27T05:04:48.298Z,1018.36
2023-01-27T05:05:48.280Z,1018.36
2023-01-27T05:06:48.290Z,1018.38
2023-01-27T05:07:48.256Z,1018.39
2023-01-27T05:08:48.245Z,1018.41
2023-01-27T05:09:48.226Z,1018.42
2023-01-27T05:10:48.213Z,1018.45
2023-01-27T05:11:48.199Z,1018.48
2023-01-27T05:12:48.186Z,1018.50
2023-01-27T05:13:48.168Z,1018.50
2023-01-27T05:14:48.172Z,1018.53
2023-01-27T05:15:48.194Z,1018.55
2023-01-27T05:16:48.158Z,1018.54
2023-01-27T05:17:48.113Z,1018.58
2023-01-27T05:18:48.100Z,1018.57
2023-01-27T05:19:48.085Z,1018.56
2023-01-27T05:20:48.484Z,1018.61
2023-01-27T05:21:48.058Z,1018.62
2023-01-27T05:22:48.047Z,1018.64
2023-01-27T05:23:48.032Z,1018.66
2023-01-27T05:24:48.014Z,1018.64
2023-01-27T05:25:48.001Z,1018.62
2023-01-27T05:26:47.994Z,1018.61
2023-01-27T05:27:47.976Z,1018.61
2023-01-27T05:28:47.960Z,1018.66
2023-01-27T05:29:47.946Z,1018.67
2023-01-27T05:30:48.141Z,1018.65
2023-01-27T05:31:47.940Z,1018.66
2023-01-27T05:32:47.929Z,1018.66
2023-01-27T05:33:47.915Z,1018.66
2023-01-27T05:34:47.878Z,1018.67
2023-01-27T05:35:47.868Z,1018.70
2023-01-27T05:36:47.857Z,1018.73
2023-01-27T05:37:47.835Z,1018.75
2023-01-27T05:38:47.823Z,1018.78
2023-01-27T05:39:47.817Z,1018.80
2023-01-27T05:40:47.793Z,1018.81
2023-01-27T05:41:47.786Z,1018.82
2023-01-27T05:42:47.783Z,1018.79
2023-01-27T05:43:47.759Z,1018.79
2023-01-27T05:44:49.622Z,1018.79
2023-01-27T05:45:47.726Z,1018.78
2023-01-27T05:46:47.761Z,1018.79
2023-01-27T05:47:47.698Z,1018.75
2023-01-27T05:48:47.684Z,1018.75
2023-01-27T05:49:47.669Z,1018.79
2023-01-27T05:50:47.654Z,1018.77
2023-01-27T05:51:47.640Z,1018.80
2023-01-27T05:52:47.629Z,1018.87
2023-01-27T05:53:47.611Z,1018.88
2023-01-27T05:54:47.602Z,1018.89
2023-01-27T05:55:47.581Z,1018.93
2023-01-27T05:56:47.575Z,1018.88
2023-01-27T05:57:47.555Z,1018.90
2023-01-27T05:58:47.544Z,1018.87
2023-01-27T05:59:47.528Z,1018.88
2023-01-27T06:00:47.512Z,1018.86
2023-01-27T06:01:47.516Z,1018.88
2023-01-27T06:02:47.507Z,1018.81
2023-01-27T06:03:47.502Z,1018.82
2023-01-27T06:04:47.465Z,1018.81
2023-01-27T06:05:47.444Z,1018.79
2023-01-27T06:06:47.433Z,1018.77
2023-01-27T06:07:47.432Z,1018.75
2023-01-27T06:08:47.424Z,1018.74
2023-01-27T06:09:47.388Z,1018.77
2023-01-27T06:10:47.377Z,1018.76
2023-01-27T06:11:47.375Z,1018.80
2023-01-27T06:12:47.348Z,1018.77
2023-01-27T06:13:47.331Z,1018.79
2023-01-27T06:14:47.330Z,1018.80
2023-01-27T06:15:47.306Z,1018.78
2023-01-27T06:16:47.398Z,1018.75
2023-01-27T06:17:47.277Z,1018.80
2023-01-27T06:18:47.266Z,1018.79
2023-01-27T06:19:47.252Z,1018.79
2023-01-27T06:20:47.233Z,1018.81
2023-01-27T06:21:47.221Z,1018.83
2023-01-27T06:22:47.213Z,1018.79
2023-01-27T06:23:47.195Z,1018.84
2023-01-27T06:24:47.178Z,1018.81
2023-01-27T06:25:47.197Z,1018.85
2023-01-27T06:26:47.155Z,1018.83
2023-01-27T06:27:47.141Z,1018.87
2023-01-27T06:28:47.143Z,1018.87
2023-01-27T06:29:47.113Z,1018.88
2023-01-27T06:30:47.129Z,1018.87
2023-01-27T06:31:47.155Z,1018.87
2023-01-27T06:32:47.086Z,1018.85
2023-01-27T06:33:47.057Z,1018.87
2023-01-27T06:34:47.046Z,1018.88
2023-01-27T06:35:47.028Z,1018.88
2023-01-27T06:36:47.014Z,1018.89
2023-01-27T06:37:46.999Z,1018.91
2023-01-27T06:38:46.985Z,1018.98
2023-01-27T06:39:46.978Z,1018.96
2023-01-27T06:40:46.957Z,1018.97
2023-01-27T06:41:46.944Z,1018.97
2023-01-27T06:42:46.931Z,1018.98
2023-01-27T06:43:46.915Z,1018.98
2023-01-27T06:44:46.923Z,1019.00
2023-01-27T06:45:46.890Z,1018.98
2023-01-27T06:46:46.894Z,1019.03
2023-01-27T06:47:46.859Z,1019.02
2023-01-27T06:48:46.869Z,1019.02
2023-01-27T06:49:46.828Z,1019.03
2023-01-27T06:50:46.822Z,1019.01
2023-01-27T06:51:46.803Z,1018.98
2023-01-27T06:52:46.790Z,1019.03
2023-01-27T06:53:46.777Z,1018.98
2023-01-27T06:54:46.765Z,1018.99
2023-01-27T06:55:46.745Z,1018.93
2023-01-27T06:56:46.743Z,1018.99
2023-01-27T06:57:46.724Z,1018.97
2023-01-27T06:58:46.706Z,1019.00
2023-01-27T06:59:46.708Z,1018.99
2023-01-27T07:00:46.715Z,1019.05
2023-01-27T07:01:46.715Z,1019.05
2023-01-27T07:02:46.682Z,1019.08
2023-01-27T07:03:46.635Z,1019.14
2023-01-27T07:04:46.628Z,1019.12
2023-01-27T07:05:46.635Z,1019.12
2023-01-27T07:06:46.597Z,1019.11
2023-01-27T07:07:46.584Z,1019.14
2023-01-27T07:08:46.580Z,1019.13
2023-01-27T07:09:52.340Z,1019.14
2023-01-27T07:10:46.547Z,1019.19
2023-01-27T07:11:46.550Z,1019.19
2023-01-27T07:12:46.544Z,1019.18
2023-01-27T07:13:46.505Z,1019.23
2023-01-27T07:14:46.484Z,1019.24
2023-01-27T07:15:46.472Z,1019.25
2023-01-27T07:16:46.458Z,1019.27
2023-01-27T07:17:46.444Z,1019.23
2023-01-27T07:18:46.429Z,1019.25
2023-01-27T07:19:46.415Z,1019.24
2023-01-27T07:20:46.403Z,1019.34
2023-01-27T07:21:46.388Z,1019.29
2023-01-27T07:22:46.375Z,1019.30
2023-01-27T07:23:46.363Z,1019.30
2023-01-27T07:24:46.346Z,1019.32
2023-01-27T07:25:46.328Z,1019.30
2023-01-27T07:26:46.319Z,1019.32
2023-01-27T07:27:46.321Z,1019.34
2023-01-27T07:28:46.293Z,1019.36
2023-01-27T07:29:46.278Z,1019.34
2023-01-27T07:30:46.343Z,1019.35
2023-01-27T07:31:46.286Z,1019.35
2023-01-27T07:32:46.232Z,1019.36
2023-01-27T07:33:46.233Z,1019.36
2023-01-27T07:34:46.217Z,1019.35
2023-01-27T07:35:46.193Z,1019.35
2023-01-27T07:36:46.180Z,1019.35
2023-01-27T07:37:46.166Z,1019.29
2023-01-27T07:38:46.262Z,1019.31
2023-01-27T07:39:46.230Z,1019.32
2023-01-27T07:40:46.164Z,1019.30
2023-01-27T07:41:46.115Z,1019.28
2023-01-27T07:42:46.100Z,1019.32
2023-01-27T07:43:46.093Z,1019.39
2023-01-27T07:44:46.066Z,1019.37
2023-01-27T07:45:46.067Z,1019.37
2023-01-27T07:46:46.050Z,1019.39
2023-01-27T07:47:46.024Z,1019.40
2023-01-27T07:48:46.020Z,1019.42
2023-01-27T07:49:46.024Z,1019.45
2023-01-27T07:50:46.002Z,1019.42
2023-01-27T07:51:45.988Z,1019.45
2023-01-27T07:52:45.958Z,1019.45
2023-01-27T07:53:46.159Z,1019.45
2023-01-27T07:54:45.937Z,1019.46
2023-01-27T07:55:45.921Z,1019.50
2023-01-27T07:56:45.902Z,1019.48
2023-01-27T07:57:45.911Z,1019.50
2023-01-27T07:58:45.886Z,1019.48
2023-01-27T07:59:45.859Z,1019.49
2023-01-27T08:00:45.875Z,1019.47
2023-01-27T08:01:48.113Z,1019.49
2023-01-27T08:02:45.825Z,1019.48
2023-01-27T08:03:45.808Z,1019.49
2023-01-27T08:04:52.918Z,1019.46
2023-01-27T08:05:45.776Z,1019.48
2023-01-27T08:06:45.767Z,1019.50
2023-01-27T08:07:45.753Z,1019.55
2023-01-27T08:08:45.741Z,1019.53
2023-01-27T08:09:45.791Z,1019.52
2023-01-27T08:10:45.712Z,1019.58
2023-01-27T08:11:45.717Z,1019.50
2023-01-27T08:12:45.681Z,1019.52
2023-01-27T08:13:45.682Z,1019.57
2023-01-27T08:14:45.656Z,1019.56
2023-01-27T08:15:45.647Z,1019.55
2023-01-27T08:16:45.672Z,1019.57
2023-01-27T08:17:45.619Z,1019.60
2023-01-27T08:18:45.601Z,1019.58
2023-01-27T08:19:45.585Z,1019.55
2023-01-27T08:20:46.195Z,1019.56
2023-01-27T08:21:45.606Z,1019.60
2023-01-27T08:22:45.547Z,1019.61
2023-01-27T08:23:45.533Z,1019.59
2023-01-27T08:24:45.540Z,1019.61
2023-01-27T08:25:45.515Z,1019.60
2023-01-27T08:26:45.498Z,1019.61
2023-01-27T08:27:45.477Z,1019.61
2023-01-27T08:28:45.462Z,1019.61
2023-01-27T08:29:45.454Z,1019.61
2023-01-27T08:30:45.435Z,1019.64
2023-01-27T08:31:45.534Z,1019.62
2023-01-27T08:32:45.413Z,1019.65
2023-01-27T08:33:45.423Z,1019.68
2023-01-27T08:34:45.391Z,1019.69
2023-01-27T08:35:45.382Z,1019.70
2023-01-27T08:36:45.359Z,1019.67
2023-01-27T08:37:47.337Z,1019.68
2023-01-27T08:38:45.339Z,1019.68
2023-01-27T08:39:45.312Z,1019.70
2023-01-27T08:40:45.311Z,1019.68
2023-01-27T08:41:45.290Z,1019.73
2023-01-27T08:42:45.277Z,1019.71
2023-01-27T08:43:45.259Z,1019.72
2023-01-27T08:44:45.254Z,1019.70
2023-01-27T08:45:45.249Z,1019.75
2023-01-27T08:46:45.227Z,1019.76
2023-01-27T08:47:45.215Z,1019.77
2023-01-27T08:48:45.195Z,1019.77
2023-01-27T08:49:45.187Z,1019.75
2023-01-27T08:50:45.170Z,1019.76
2023-01-27T08:51:45.178Z,1019.77
2023-01-27T08:52:45.149Z,1019.79
2023-01-27T08:53:45.130Z,1019.82
2023-01-27T08:54:45.127Z,1019.78
2023-01-27T08:55:45.102Z,1019.82
2023-01-27T08:56:45.101Z,1019.80
2023-01-27T08:57:45.077Z,1019.85
2023-01-27T08:58:45.065Z,1019.84
2023-01-27T08:59:45.051Z,1019.88
2023-01-27T09:00:45.053Z,1019.85
2023-01-27T09:01:45.155Z,1019.84
2023-01-27T09:02:46.554Z,1019.86
2023-01-27T09:03:45.002Z,1019.87
2023-01-27T09:04:45.029Z,1019.83
2023-01-27T09:05:44.971Z,1019.88
2023-01-27T09:06:44.972Z,1019.90
2023-01-27T09:07:44.946Z,1019.86
2023-01-27T09:08:44.932Z,1019.93
2023-01-27T09:09:44.921Z,1019.92
2023-01-27T09:10:44.907Z,1019.93
2023-01-27T09:11:44.900Z,1019.92
2023-01-27T09:12:44.879Z,1019.98
2023-01-27T09:13:44.864Z,1019.99
2023-01-27T09:14:44.847Z,1020.03
2023-01-27T09:15:44.837Z,1020.03
2023-01-27T09:16:44.824Z,1020.03
2023-01-27T09:17:44.835Z,1019.99
2023-01-27T09:18:44.797Z,1019.99
2023-01-27T09:19:44.781Z,1020.07
2023-01-27T09:20:44.774Z,1020.07
2023-01-27T09:21:44.761Z,1020.07
2023-01-27T09:22:44.746Z,1020.12
2023-01-27T09:23:44.735Z,1020.13
2023-01-27T09:24:44.712Z,1020.23
2023-01-27T09:25:44.708Z,1020.16
2023-01-27T09:26:44.692Z,1020.15
2023-01-27T09:27:44.707Z,1020.12
2023-01-27T09:28:44.663Z,1020.19
2023-01-27T09:29:44.657Z,1020.15
2023-01-27T09:30:46.113Z,1020.17
2023-01-27T09:31:44.742Z,1020.15
2023-01-27T09:32:44.615Z,1020.16
2023-01-27T09:33:44.596Z,1020.13
2023-01-27T09:34:44.587Z,1020.19
2023-01-27T09:35:44.575Z,1020.17
2023-01-27T09:36:44.565Z,1020.23
2023-01-27T09:37:44.550Z,1020.22
2023-01-27T09:38:44.531Z,1020.13
2023-01-27T09:39:44.517Z,1020.20
2023-01-27T09:40:44.503Z,1020.18
2023-01-27T09:41:44.491Z,1020.15
2023-01-27T09:42:44.474Z,1020.20
2023-01-27T09:43:44.464Z,1020.21
2023-01-27T09:44:44.450Z,1020.19
2023-01-27T09:45:44.437Z,1020.19
2023-01-27T09:46:44.426Z,1020.22
2023-01-27T09:47:44.406Z,1020.20
2023-01-27T09:48:44.413Z,1020.27
2023-01-27T09:49:44.384Z,1020.29
2023-01-27T09:50:44.375Z,1020.25
2023-01-27T09:51:44.357Z,1020.27
2023-01-27T09:52:47.872Z,1020.23
2023-01-27T09:53:44.348Z,1020.28
2023-01-27T09:54:44.318Z,1020.31
2023-01-27T09:55:44.308Z,1020.30
2023-01-27T09:56:44.291Z,1020.30
2023-01-27T09:57:44.323Z,1020.34
2023-01-27T09:58:44.275Z,1020.29
2023-01-27T09:59:44.245Z,1020.34
2023-01-27T10:00:44.239Z,1020.31
2023-01-27T10:01:44.264Z,1020.35
2023-01-27T10:02:44.221Z,1020.38
2023-01-27T10:03:44.199Z,1020.42
2023-01-27T10:04:44.252Z,1020.35
2023-01-27T10:05:44.180Z,1020.34
2023-01-27T10:06:44.165Z,1020.33
2023-01-27T10:07:44.145Z,1020.34
2023-01-27T10:08:44.134Z,1020.40
2023-01-27T10:09:44.119Z,1020.29
2023-01-27T10:10:44.103Z,1020.37
2023-01-27T10:11:44.090Z,1020.35
2023-01-27T10:12:44.085Z,1020.36
2023-01-27T10:13:44.064Z,1020.32
2023-01-27T10:14:44.051Z,1020.33
2023-01-27T10:15:44.040Z,1020.34
2023-01-27T10:16:44.024Z,1020.38
2023-01-27T10:17:44.013Z,1020.36
2023-01-27T10:18:44.008Z,1020.34
2023-01-27T10:19:43.986Z,1020.32
2023-01-27T10:20:43.971Z,1020.38
2023-01-27T10:21:43.960Z,1020.39
2023-01-27T10:22:43.944Z,1020.39
2023-01-27T10:23:43.925Z,1020.40
2023-01-27T10:24:43.915Z,1020.41
2023-01-27T10:25:43.900Z,1020.40
2023-01-27T10:26:43.892Z,1020.40
2023-01-27T10:27:43.877Z,1020.44
2023-01-27T10:28:43.868Z,1020.46
2023-01-27T10:29:43.851Z,1020.40
2023-01-27T10:30:43.859Z,1020.41
2023-01-27T10:31:43.908Z,1020.42
2023-01-27T10:32:43.811Z,1020.45
2023-01-27T10:33:43.804Z,1020.39
2023-01-27T10:34:43.787Z,1020.42
2023-01-27T10:35:43.775Z,1020.42
2023-01-27T10:36:43.759Z,1020.50
2023-01-27T10:37:43.743Z,1020.48
2023-01-27T10:38:43.733Z,1020.48
2023-01-27T10:39:43.718Z,1020.48
2023-01-27T10:40:43.706Z,1020.54
2023-01-27T10:41:43.698Z,1020.51
2023-01-27T10:42:43.681Z,1020.45
2023-01-27T10:43:43.667Z,1020.51
2023-01-27T10:44:43.657Z,1020.50
2023-01-27T10:45:43.689Z,1020.49
2023-01-27T10:46:43.657Z,1020.45
2023-01-27T10:47:43.613Z,1020.47
2023-01-27T10:48:43.603Z,1020.43
2023-01-27T10:49:43.591Z,1020.44
2023-01-27T10:50:43.611Z,1020.44
2023-01-27T10:51:43.572Z,1020.48
2023-01-27T10:52:43.554Z,1020.48
2023-01-27T10:53:43.543Z,1020.50
2023-01-27T10:54:43.519Z,1020.49
2023-01-27T10:55:43.506Z,1020.44
2023-01-27T10:56:43.502Z,1020.45
2023-01-27T10:57:43.513Z,1020.52
2023-01-27T10:58:43.475Z,1020.51
2023-01-27T10:59:45.230Z,1020.50
2023-01-27T11:01:18.873Z,1020.54
2023-01-27T11:01:43.469Z,1020.48
2023-01-27T11:02:43.419Z,1020.54
2023-01-27T11:03:43.416Z,1020.53
2023-01-27T11:04:43.388Z,1020.56
2023-01-27T11:05:43.391Z,1020.58
2023-01-27T11:06:43.363Z,1020.57
2023-01-27T11:07:43.350Z,1020.58
2023-01-27T11:08:43.334Z,1020.54
2023-01-27T11:09:43.321Z,1020.59
2023-01-27T11:10:43.312Z,1020.53
2023-01-27T11:11:43.313Z,1020.55
2023-01-27T11:12:43.284Z,1020.58
2023-01-27T11:13:43.287Z,1020.61
2023-01-27T11:14:43.259Z,1020.55
2023-01-27T11:15:43.237Z,1020.55
2023-01-27T11:16:43.287Z,1020.59
2023-01-27T11:17:43.217Z,1020.54
2023-01-27T11:18:43.205Z,1020.48
2023-01-27T11:19:43.190Z,1020.52
2023-01-27T11:20:43.177Z,1020.52
2023-01-27T11:21:43.165Z,1020.53
2023-01-27T11:22:43.155Z,1020.54
2023-01-27T11:23:43.145Z,1020.55
2023-01-27T11:24:43.130Z,1020.55
2023-01-27T11:25:43.114Z,1020.48
2023-01-27T11:26:43.098Z,1020.46
2023-01-27T11:27:43.084Z,1020.50
2023-01-27T11:28:43.076Z,1020.51
2023-01-27T11:29:43.086Z,1020.50
2023-01-27T11:30:43.048Z,1020.48
2023-01-27T11:31:43.094Z,1020.46
2023-01-27T11:32:43.025Z,1020.47
2023-01-27T11:33:43.006Z,1020.44
2023-01-27T11:34:42.990Z,1020.51
2023-01-27T11:35:42.982Z,1020.48
2023-01-27T11:36:42.968Z,1020.46
2023-01-27T11:37:42.956Z,1020.42
2023-01-27T11:38:42.946Z,1020.43
2023-01-27T11:39:42.923Z,1020.39
2023-01-27T11:40:42.920Z,1020.42
2023-01-27T11:41:42.900Z,1020.40
2023-01-27T11:42:42.891Z,1020.41
2023-01-27T11:43:42.894Z,1020.40
2023-01-27T11:44:42.864Z,1020.44
2023-01-27T11:45:42.978Z,1020.40
2023-01-27T11:46:42.839Z,1020.47
2023-01-27T11:47:42.824Z,1020.43
2023-01-27T11:48:42.816Z,1020.41
2023-01-27T11:49:42.796Z,1020.39
2023-01-27T11:50:49.942Z,1020.37
2023-01-27T11:52:46.759Z,1020.43
2023-01-27T11:53:46.730Z,1020.43
2023-01-27T11:55:39.636Z,1020.46
2023-01-27T11:56:39.620Z,1020.37
2023-01-27T11:58:43.595Z,1020.47
2023-01-27T11:59:43.558Z,1020.48
2023-01-27T12:01:47.565Z,1020.47
2023-01-27T12:02:47.499Z,1020.46
2023-01-27T12:04:51.536Z,1020.48
2023-01-27T12:05:51.456Z,1020.47
2023-01-27T12:07:55.474Z,1020.48
2023-01-27T12:08:55.414Z,1020.50
2023-01-27T12:10:59.371Z,1020.51
2023-01-27T12:11:59.361Z,1020.55
2023-01-27T12:14:03.334Z,1020.48